Time;durP1;ratioP1;P1;durP2;ratioP2;P2;SDS_P1;SDS_P2;PMS_P1;PMS_P2;Temp;Humidity;BMP_temperature;BMP_pressure;BME280_temperature;BME280_humidity;BME280_pressure;Samples;Min_cycle;Max_cycle;Signal;HPM_P1;HPM_P2
2023/12/22 00:00:39;;;;;;;1.95;0.65;;;1.00;99.90;;;;;;5027309;28;20561;-83
2023/12/22 00:03:04;;;;;;;2.35;0.70;;;1.10;99.90;;;;;;5012619;28;20022;-84
2023/12/22 00:05:30;;;;;;;1.58;0.80;;;1.10;99.90;;;;;;4994959;28;20033;-83
2023/12/22 00:07:55;;;;;;;0.63;0.60;;;1.00;99.90;;;;;;5012472;28;20470;-83
2023/12/22 00:10:21;;;;;;;4.28;1.42;;;0.90;99.90;;;;;;4994474;28;20038;-83
2023/12/22 00:12:47;;;;;;;1.33;0.75;;;0.70;99.90;;;;;;4994345;28;20052;-82
2023/12/22 00:15:13;;;;;;;1.30;0.90;;;0.70;99.90;;;;;;4994674;28;20221;-83
2023/12/22 00:17:38;;;;;;;1.63;1.50;;;0.70;99.90;;;;;;5027301;28;20037;-83
2023/12/22 00:20:04;;;;;;;2.67;0.80;;;0.70;99.90;;;;;;4994749;28;20057;-83
2023/12/22 00:22:30;;;;;;;0.85;0.73;;;0.90;99.90;;;;;;5010739;28;20115;-83
2023/12/22 00:24:56;;;;;;;5.60;1.10;;;1.00;99.90;;;;;;5027471;28;20062;-83
2023/12/22 00:27:22;;;;;;;2.50;1.60;;;1.10;99.90;;;;;;4994245;28;20038;-83
2023/12/22 00:29:47;;;;;;;2.40;1.23;;;1.10;99.90;;;;;;5010269;28;20846;-83
2023/12/22 00:32:13;;;;;;;5.43;1.80;;;1.10;99.90;;;;;;4998046;28;20145;-83
2023/12/22 00:34:39;;;;;;;2.85;1.30;;;1.10;99.90;;;;;;5014724;28;20018;-84
2023/12/22 00:37:04;;;;;;;1.77;1.20;;;1.20;99.90;;;;;;5014674;28;20083;-83
2023/12/22 00:39:31;;;;;;;2.75;0.82;;;1.30;99.90;;;;;;5014947;28;20715;-83
2023/12/22 00:41:57;;;;;;;1.80;1.13;;;1.40;99.90;;;;;;5014938;28;20068;-84
2023/12/22 00:44:23;;;;;;;1.38;0.95;;;1.40;99.90;;;;;;4998092;28;20481;-83
2023/12/22 00:46:49;;;;;;;2.65;1.02;;;1.50;99.90;;;;;;5029045;28;20117;-84
2023/12/22 00:49:14;;;;;;;3.70;1.75;;;1.60;99.90;;;;;;5031437;28;20121;-84
2023/12/22 00:51:40;;;;;;;1.83;1.20;;;1.60;99.90;;;;;;5031171;28;20056;-84
2023/12/22 00:54:06;;;;;;;4.28;1.45;;;1.70;99.90;;;;;;5014943;28;20065;-84
2023/12/22 00:56:31;;;;;;;5.43;1.65;;;1.80;99.90;;;;;;5031139;28;20071;-84
2023/12/22 00:58:57;;;;;;;2.47;1.35;;;1.90;99.90;;;;;;5031090;28;20096;-84
2023/12/22 01:01:22;;;;;;;1.45;1.10;;;1.90;99.90;;;;;;5030877;28;20557;-83
2023/12/22 01:04:00;;;;;;;2.88;1.48;;;2.00;99.90;;;;;;5031093;28;20470;-84
2023/12/22 01:06:26;;;;;;;3.83;2.00;;;2.00;99.90;;;;;;5030697;28;20034;-83
2023/12/22 01:08:52;;;;;;;2.25;1.30;;;2.10;99.90;;;;;;5030784;28;20080;-84
2023/12/22 01:11:17;;;;;;;2.70;1.65;;;2.00;99.90;;;;;;5014033;28;20049;-83
2023/12/22 01:13:44;;;;;;;4.72;1.40;;;2.00;99.90;;;;;;5014526;28;20092;-84
2023/12/22 01:16:09;;;;;;;4.95;1.58;;;1.90;99.90;;;;;;5013784;28;20053;-84
2023/12/22 01:18:35;;;;;;;6.07;2.17;;;2.00;99.90;;;;;;5013643;28;20026;-84
2023/12/22 01:21:01;;;;;;;5.32;2.15;;;2.00;99.90;;;;;;5013255;28;20065;-84
2023/12/22 01:23:26;;;;;;;3.85;2.08;;;2.00;99.90;;;;;;5014820;28;20061;-84
2023/12/22 01:25:52;;;;;;;3.30;1.60;;;2.00;99.90;;;;;;5013577;28;20362;-84
2023/12/22 01:28:18;;;;;;;5.00;1.33;;;2.00;99.90;;;;;;5030213;28;20119;-84
2023/12/22 01:30:43;;;;;;;6.65;1.55;;;2.10;99.90;;;;;;5026289;28;20413;-84
2023/12/22 01:33:09;;;;;;;3.05;1.40;;;2.10;99.90;;;;;;5030256;28;20516;-83
2023/12/22 01:35:35;;;;;;;2.88;1.55;;;2.20;99.90;;;;;;5014770;28;20037;-84
2023/12/22 01:38:01;;;;;;;8.80;1.83;;;2.20;99.90;;;;;;5013144;28;20433;-84
2023/12/22 01:40:26;;;;;;;7.00;1.77;;;2.30;99.90;;;;;;5013203;28;20049;-84
2023/12/22 01:42:52;;;;;;;6.95;2.22;;;2.40;99.90;;;;;;5013291;28;20034;-83
2023/12/22 01:45:18;;;;;;;4.00;2.00;;;2.40;99.90;;;;;;5013504;28;20025;-84
2023/12/22 01:47:46;;;;;;;566.85;168.02;;;2.50;99.90;;;;;;5012851;28;20049;-84
2023/12/22 01:50:12;;;;;;;5.93;2.63;;;2.50;99.90;;;;;;4995932;28;20091;-84
2023/12/22 01:52:39;;;;;;;6.18;2.25;;;2.50;99.90;;;;;;5029108;28;20065;-83
2023/12/22 01:55:06;;;;;;;9.18;2.55;;;2.60;99.90;;;;;;5012333;28;20030;-84
2023/12/22 01:57:34;;;;;;;14.25;3.13;;;2.70;99.90;;;;;;5013881;28;20066;-84
2023/12/22 02:00:00;;;;;;;8.30;2.42;;;2.80;99.90;;;;;;5029646;28;20034;-84
2023/12/22 02:02:26;;;;;;;11.35;2.17;;;2.90;99.90;;;;;;5012623;28;20553;-84
2023/12/22 02:04:53;;;;;;;9.38;2.15;;;3.00;99.90;;;;;;5012485;28;20034;-84
2023/12/22 02:07:19;;;;;;;13.00;2.88;;;3.00;99.90;;;;;;5028979;28;20030;-83
2023/12/22 02:09:45;;;;;;;7.28;3.00;;;2.90;99.90;;;;;;5029187;28;20062;-84
2023/12/22 02:12:10;;;;;;;7.90;3.00;;;2.70;99.90;;;;;;5028884;28;20065;-84
2023/12/22 02:14:36;;;;;;;13.63;3.22;;;2.70;99.90;;;;;;5012174;28;20030;-84
2023/12/22 02:17:40;;;;;;;11.85;3.92;;;2.80;99.90;;;;;;5028507;28;20033;-83
2023/12/22 02:20:07;;;;;;;13.77;3.28;;;2.80;99.90;;;;;;5030502;28;20791;-84
2023/12/22 02:22:33;;;;;;;13.50;3.83;;;2.80;99.90;;;;;;4995140;28;20790;-84
2023/12/22 02:24:58;;;;;;;19.88;4.43;;;2.80;99.90;;;;;;5029070;28;20034;-84
2023/12/22 02:27:50;;;;;;;11.68;4.47;;;3.00;99.90;;;;;;5029308;28;20034;-83
2023/12/22 02:30:28;;;;;;;18.33;4.30;;;3.00;99.90;;;;;;5011476;28;20044;-83
2023/12/22 02:32:58;;;;;;;20.63;4.18;;;3.00;99.90;;;;;;5009893;28;20432;-83
2023/12/22 02:35:27;;;;;;;18.00;4.07;;;3.10;99.90;;;;;;5012594;28;20125;-84
2023/12/22 02:37:56;;;;;;;16.15;3.63;;;3.20;99.90;;;;;;5012670;28;20385;-84
2023/12/22 02:40:23;;;;;;;11.98;3.20;;;3.20;99.90;;;;;;5012312;28;20033;-83
2023/12/22 02:42:49;;;;;;;26.88;3.85;;;3.30;99.90;;;;;;5012502;28;20037;-84
2023/12/22 02:45:16;;;;;;;18.67;4.30;;;3.50;99.90;;;;;;5012216;28;20107;-84
2023/12/22 02:47:48;;;;;;;20.15;3.88;;;3.50;99.90;;;;;;5013335;28;20377;-84
2023/12/22 02:50:16;;;;;;;15.13;3.85;;;3.50;99.90;;;;;;5012546;28;20080;-84
2023/12/22 02:52:41;;;;;;;14.68;3.90;;;3.60;99.90;;;;;;5028162;28;20038;-84
2023/12/22 02:55:08;;;;;;;17.77;4.45;;;3.60;99.90;;;;;;5012372;28;20422;-84
2023/12/22 02:57:34;;;;;;;10.77;3.92;;;3.60;99.90;;;;;;5013447;28;20112;-83
2023/12/22 03:00:07;;;;;;;8.35;4.07;;;3.40;99.90;;;;;;5027901;28;20042;-84
2023/12/22 03:02:32;;;;;;;15.05;4.80;;;3.10;99.90;;;;;;5028119;28;20373;-84
2023/12/22 03:04:58;;;;;;;13.73;5.00;;;3.00;99.90;;;;;;5028490;28;20038;-84
2023/12/22 03:07:24;;;;;;;14.57;4.60;;;3.00;99.90;;;;;;5028364;28;20421;-83
2023/12/22 03:09:49;;;;;;;13.32;4.05;;;3.10;99.90;;;;;;5028622;28;20022;-84
2023/12/22 03:12:15;;;;;;;18.13;4.90;;;3.10;99.90;;;;;;5012152;28;20030;-84
2023/12/22 03:14:41;;;;;;;26.40;5.03;;;3.20;99.90;;;;;;5011747;28;20033;-84
2023/12/22 03:17:19;;;;;;;7.68;4.68;;;3.20;99.90;;;;;;5028400;28;20158;-84
2023/12/22 03:19:44;;;;;;;20.55;6.07;;;3.20;99.90;;;;;;5012508;28;20053;-84
2023/12/22 03:22:10;;;;;;;21.02;4.88;;;3.10;99.90;;;;;;5028093;28;20367;-84
2023/12/22 03:24:37;;;;;;;13.77;5.40;;;3.20;99.90;;;;;;5027758;28;20022;-84
2023/12/22 03:27:02;;;;;;;18.65;6.22;;;3.20;99.90;;;;;;5028100;28;20037;-84
2023/12/22 03:29:28;;;;;;;21.60;5.22;;;3.20;99.90;;;;;;5012325;28;20022;-83
2023/12/22 03:31:54;;;;;;;17.67;5.88;;;3.10;99.90;;;;;;5010819;28;20037;-84
2023/12/22 03:34:19;;;;;;;15.23;4.90;;;3.10;99.90;;;;;;5025657;28;20037;-84
2023/12/22 03:36:48;;;;;;;13.45;4.50;;;3.20;99.90;;;;;;5027624;28;20057;-84
2023/12/22 03:39:15;;;;;;;20.52;4.35;;;3.20;99.90;;;;;;5011136;28;20046;-84
2023/12/22 03:41:41;;;;;;;12.50;4.35;;;3.20;99.90;;;;;;5011029;28;20052;-84
2023/12/22 03:44:06;;;;;;;21.88;4.13;;;3.20;99.90;;;;;;5010790;28;20129;-84
2023/12/22 03:46:47;;;;;;;13.52;3.92;;;3.30;99.90;;;;;;5010895;28;20029;-84
2023/12/22 03:49:13;;;;;;;9.02;3.28;;;3.20;99.90;;;;;;5027782;28;20298;-84
2023/12/22 03:51:41;;;;;;;19.80;4.28;;;3.20;99.90;;;;;;5028056;28;20038;-84
2023/12/22 03:54:15;;;;;;;14.38;3.70;;;3.20;99.90;;;;;;5011822;28;20029;-84
2023/12/22 03:56:43;;;;;;;13.35;4.45;;;3.20;99.90;;;;;;5011960;28;20057;-84
2023/12/22 03:59:08;;;;;;;21.23;4.45;;;3.30;99.90;;;;;;5028573;28;20034;-84
2023/12/22 04:01:35;;;;;;;8.90;2.83;;;3.30;99.90;;;;;;5012290;28;20108;-84
2023/12/22 04:04:01;;;;;;;6.35;2.80;;;3.20;99.90;;;;;;5012787;28;20574;-84
2023/12/22 04:06:26;;;;;;;4.20;2.13;;;2.90;99.90;;;;;;5027640;28;20516;-84
2023/12/22 04:08:52;;;;;;;12.25;2.65;;;2.70;99.90;;;;;;5028152;28;20038;-84
2023/12/22 04:11:18;;;;;;;11.05;3.08;;;2.60;99.90;;;;;;5018100;28;20025;-84
2023/12/22 04:13:43;;;;;;;7.72;2.97;;;2.60;99.90;;;;;;5018758;28;20551;-84
2023/12/22 04:16:09;;;;;;;12.02;3.70;;;2.60;99.90;;;;;;5012724;28;20422;-83
2023/12/22 04:18:35;;;;;;;17.73;5.40;;;2.80;99.90;;;;;;5012681;28;20065;-84
2023/12/22 04:21:00;;;;;;;14.07;4.50;;;2.90;99.90;;;;;;5011945;28;20128;-84
2023/12/22 04:23:26;;;;;;;14.68;4.18;;;2.90;99.90;;;;;;5028161;28;20483;-84
2023/12/22 04:25:52;;;;;;;18.05;5.78;;;2.90;99.90;;;;;;5011549;28;20469;-84
2023/12/22 04:28:17;;;;;;;21.67;5.55;;;3.00;99.90;;;;;;5028348;28;20041;-84
2023/12/22 04:30:43;;;;;;;21.48;6.00;;;3.00;99.90;;;;;;5028139;28;20045;-84
2023/12/22 04:33:09;;;;;;;16.13;6.40;;;3.10;99.90;;;;;;5010650;28;20022;-85
2023/12/22 04:35:34;;;;;;;15.05;4.97;;;3.10;99.90;;;;;;5026996;28;20667;-83
2023/12/22 04:38:00;;;;;;;12.07;3.03;;;3.10;99.90;;;;;;5010998;28;20030;-83
2023/12/22 04:40:29;;;;;;;7.63;2.03;;;3.00;99.90;;;;;;5010469;28;20033;-84
2023/12/22 04:42:55;;;;;;;3.47;1.30;;;2.80;99.90;;;;;;5009494;28;20141;-84
2023/12/22 04:45:20;;;;;;;4.63;1.17;;;2.70;99.90;;;;;;5027644;28;20379;-84
2023/12/22 04:47:55;;;;;;;2.17;1.20;;;2.70;99.90;;;;;;5027675;28;20092;-84
2023/12/22 04:50:21;;;;;;;3.70;1.25;;;2.60;99.90;;;;;;5011139;28;20061;-84
2023/12/22 04:52:46;;;;;;;4.95;1.08;;;2.60;99.90;;;;;;5027169;28;20068;-84
2023/12/22 04:55:12;;;;;;;5.75;1.20;;;2.60;99.90;;;;;;5027337;28;20030;-84
2023/12/22 04:57:38;;;;;;;6.57;1.67;;;2.60;99.90;;;;;;5010739;28;20037;-84
2023/12/22 05:00:04;;;;;;;5.63;1.88;;;2.60;99.90;;;;;;5010979;28;20128;-84
2023/12/22 05:02:30;;;;;;;7.93;1.90;;;2.70;99.90;;;;;;5012235;28;20640;-84
2023/12/22 05:04:56;;;;;;;8.63;2.40;;;2.70;99.90;;;;;;5026702;28;20113;-84
2023/12/22 05:07:22;;;;;;;10.93;2.30;;;2.70;99.90;;;;;;5010133;28;20117;-84
2023/12/22 05:09:47;;;;;;;6.82;1.90;;;2.70;99.90;;;;;;5010281;28;20030;-84
2023/12/22 05:12:41;;;;;;;23.52;2.35;;;2.70;99.90;;;;;;5026976;28;20521;-84
2023/12/22 05:15:07;;;;;;;11.60;2.92;;;2.70;99.90;;;;;;5011599;28;20064;-84
2023/12/22 05:17:32;;;;;;;11.27;2.40;;;2.70;99.90;;;;;;5030370;28;20062;-84
2023/12/22 05:19:58;;;;;;;10.90;3.00;;;2.80;99.90;;;;;;5030657;28;20038;-86
2023/12/22 05:22:24;;;;;;;13.50;2.60;;;2.90;99.90;;;;;;5030034;28;20038;-84
2023/12/22 05:24:50;;;;;;;15.48;2.58;;;2.90;99.90;;;;;;5013789;28;20041;-84
2023/12/22 05:27:15;;;;;;;12.15;2.70;;;2.90;99.90;;;;;;5013369;28;20040;-84
2023/12/22 05:29:41;;;;;;;17.17;3.35;;;2.90;99.90;;;;;;5030308;28;20053;-85
2023/12/22 05:32:07;;;;;;;17.67;4.65;;;2.90;99.90;;;;;;5029979;28;20046;-85
2023/12/22 05:34:32;;;;;;;17.30;3.35;;;3.00;99.90;;;;;;5013136;28;20037;-84
2023/12/22 05:36:58;;;;;;;20.65;3.53;;;3.00;99.90;;;;;;5013299;28;20041;-84
2023/12/22 05:39:24;;;;;;;14.05;3.70;;;3.10;99.90;;;;;;5013821;28;20073;-85
2023/12/22 05:41:49;;;;;;;18.17;4.95;;;3.10;99.90;;;;;;5013585;28;20052;-84
2023/12/22 05:44:15;;;;;;;12.18;3.38;;;3.10;99.90;;;;;;5027138;28;20026;-84
2023/12/22 05:46:41;;;;;;;7.32;3.13;;;3.00;99.90;;;;;;5013466;28;20026;-85
2023/12/22 05:49:06;;;;;;;8.10;2.70;;;3.00;99.90;;;;;;5013508;28;20052;-85
2023/12/22 05:51:41;;;;;;;11.13;2.65;;;2.80;99.90;;;;;;5013253;28;20077;-85
2023/12/22 05:54:08;;;;;;;6.85;1.95;;;2.60;99.90;;;;;;5013898;28;20041;-83
2023/12/22 05:56:34;;;;;;;6.35;1.83;;;2.50;99.90;;;;;;5013617;28;20051;-85
2023/12/22 05:59:00;;;;;;;8.20;2.22;;;2.50;99.90;;;;;;5030778;28;20169;-84
2023/12/22 06:01:26;;;;;;;13.07;2.30;;;2.50;99.90;;;;;;5030602;28;20438;-84
2023/12/22 06:03:53;;;;;;;4.63;1.58;;;2.40;99.90;;;;;;5013657;28;20029;-85
2023/12/22 06:06:19;;;;;;;8.73;1.80;;;2.40;99.90;;;;;;5013375;28;20022;-85
2023/12/22 06:08:45;;;;;;;6.22;2.22;;;2.40;99.90;;;;;;5013715;28;20396;-84
2023/12/22 06:11:10;;;;;;;8.82;2.17;;;2.40;99.90;;;;;;5030041;28;20049;-84
2023/12/22 06:13:36;;;;;;;11.15;3.63;;;2.40;99.90;;;;;;5029877;28;20061;-84
2023/12/22 06:16:02;;;;;;;16.02;3.35;;;2.50;99.90;;;;;;5030144;28;20065;-85
2023/12/22 06:18:28;;;;;;;15.27;7.05;;;2.60;99.90;;;;;;5029772;28;20041;-84
2023/12/22 06:20:54;;;;;;;15.02;4.80;;;2.70;99.90;;;;;;5012906;28;20037;-85
2023/12/22 06:23:20;;;;;;;33.30;13.57;;;2.80;99.90;;;;;;5012881;28;20040;-84
2023/12/22 06:25:46;;;;;;;15.52;5.53;;;2.80;99.90;;;;;;4996490;28;20038;-85
2023/12/22 06:28:12;;;;;;;17.95;4.20;;;2.90;99.90;;;;;;5011951;28;20030;-84
2023/12/22 06:30:38;;;;;;;17.27;4.47;;;2.90;99.90;;;;;;5012974;28;20030;-85
2023/12/22 06:33:04;;;;;;;12.88;4.47;;;3.00;99.90;;;;;;5012470;28;20488;-84
2023/12/22 06:35:31;;;;;;;18.35;4.40;;;3.00;99.90;;;;;;5012190;28;20080;-85
2023/12/22 06:38:01;;;;;;;21.38;4.63;;;3.10;99.90;;;;;;5028721;28;20129;-85
2023/12/22 06:40:26;;;;;;;22.00;5.07;;;3.10;99.90;;;;;;5028276;28;20125;-84
2023/12/22 06:42:52;;;;;;;23.85;4.70;;;3.10;99.90;;;;;;4996079;28;20113;-84
2023/12/22 06:45:18;;;;;;;23.33;5.70;;;3.20;99.90;;;;;;5029146;28;20022;-84
2023/12/22 06:47:43;;;;;;;23.25;6.68;;;3.20;99.90;;;;;;5028872;28;20034;-85
2023/12/22 06:50:09;;;;;;;23.13;6.07;;;3.30;99.90;;;;;;5012763;28;20033;-85
2023/12/22 06:52:35;;;;;;;16.05;5.35;;;3.30;99.90;;;;;;5012773;28;20040;-85
2023/12/22 06:55:00;;;;;;;25.05;5.55;;;3.40;99.90;;;;;;5012733;28;20029;-82
2023/12/22 06:57:26;;;;;;;24.85;6.45;;;3.40;99.90;;;;;;5012556;28;20031;-84
2023/12/22 07:00:20;;;;;;;27.98;5.57;;;3.50;99.90;;;;;;5012445;28;20033;-85
2023/12/22 07:02:46;;;;;;;19.42;4.82;;;3.60;99.90;;;;;;5014006;28;20721;-85
2023/12/22 07:05:21;;;;;;;28.38;5.32;;;3.60;99.90;;;;;;5012574;28;20052;-84
2023/12/22 07:07:47;;;;;;;27.20;5.22;;;3.60;99.90;;;;;;5012741;28;20029;-84
2023/12/22 07:10:13;;;;;;;21.88;5.13;;;3.60;99.90;;;;;;5012528;28;20458;-85
2023/12/22 07:12:41;;;;;;;21.02;4.72;;;3.70;99.90;;;;;;5012557;28;20025;-85
2023/12/22 07:15:07;;;;;;;26.10;5.72;;;3.80;99.90;;;;;;5012096;28;20033;-84
2023/12/22 07:17:34;;;;;;;31.25;5.38;;;3.80;99.90;;;;;;5013803;28;20042;-84
2023/12/22 07:20:02;;;;;;;31.83;5.00;;;3.70;99.90;;;;;;5028566;28;20034;-85
2023/12/22 07:22:28;;;;;;;22.73;4.72;;;3.70;99.90;;;;;;5011953;28;20385;-84
2023/12/22 07:24:55;;;;;;;16.38;4.50;;;3.70;99.90;;;;;;5013115;28;20056;-85
2023/12/22 07:27:21;;;;;;;21.48;4.60;;;3.70;99.90;;;;;;5028867;28;20033;-85
2023/12/22 07:29:47;;;;;;;22.40;4.15;;;3.70;99.90;;;;;;5013228;28;20026;-85
2023/12/22 07:32:13;;;;;;;39.25;4.25;;;3.70;99.90;;;;;;5012204;28;20350;-85
2023/12/22 07:34:38;;;;;;;20.35;4.68;;;3.60;99.90;;;;;;5012117;28;20038;-84
2023/12/22 07:37:07;;;;;;;25.10;5.07;;;3.70;99.90;;;;;;5028557;28;20057;-85
2023/12/22 07:39:33;;;;;;;23.52;5.60;;;3.80;99.90;;;;;;5012393;28;20041;-85
2023/12/22 07:41:59;;;;;;;23.42;3.50;;;3.90;99.90;;;;;;5012224;28;20049;-85
2023/12/22 07:44:25;;;;;;;21.05;3.78;;;3.90;99.90;;;;;;5011755;28;20033;-84
2023/12/22 07:47:01;;;;;;;20.25;3.72;;;4.00;99.90;;;;;;5012022;28;20032;-85
2023/12/22 07:49:27;;;;;;;11.88;3.50;;;4.00;99.90;;;;;;5012279;28;20076;-84
2023/12/22 07:51:53;;;;;;;23.02;3.70;;;4.00;99.90;;;;;;5012107;28;20038;-85
2023/12/22 07:54:19;;;;;;;37.65;12.32;;;4.10;99.90;;;;;;5028381;28;20441;-83
2023/12/22 07:56:45;;;;;;;23.45;7.07;;;4.10;99.90;;;;;;4995208;28;20865;-84
2023/12/22 07:59:11;;;;;;;17.10;3.08;;;4.10;99.90;;;;;;5028677;28;20033;-84
2023/12/22 08:01:40;;;;;;;15.27;4.03;;;4.20;99.90;;;;;;5012180;28;20033;-84
2023/12/22 08:04:05;;;;;;;13.65;2.92;;;4.20;99.90;;;;;;5012788;28;20120;-84
2023/12/22 08:06:31;;;;;;;16.00;4.05;;;4.30;99.90;;;;;;5029164;28;20057;-84
2023/12/22 08:08:57;;;;;;;10.35;2.28;;;4.30;99.90;;;;;;5028764;28;20053;-84
2023/12/22 08:11:25;;;;;;;7.70;2.15;;;4.40;99.90;;;;;;5028758;28;20121;-84
2023/12/22 08:13:50;;;;;;;15.40;2.60;;;4.40;99.90;;;;;;5010854;28;20030;-84
2023/12/22 08:16:16;;;;;;;10.05;2.42;;;4.40;99.90;;;;;;5011009;28;20385;-84
2023/12/22 08:18:42;;;;;;;11.57;2.47;;;4.40;99.90;;;;;;5011158;28;20030;-85
2023/12/22 08:21:07;;;;;;;13.02;2.28;;;4.40;99.90;;;;;;5011183;28;20034;-85
2023/12/22 08:23:33;;;;;;;12.07;2.47;;;4.40;99.90;;;;;;5027415;28;20032;-85
2023/12/22 08:25:59;;;;;;;12.80;3.35;;;4.40;99.90;;;;;;5027346;28;20025;-85
2023/12/22 08:28:25;;;;;;;14.63;1.92;;;4.40;99.90;;;;;;5027250;28;20034;-84
2023/12/22 08:30:52;;;;;;;8.65;1.98;;;4.40;99.90;;;;;;5026923;28;20048;-84
2023/12/22 08:33:18;;;;;;;13.25;1.88;;;4.30;99.90;;;;;;5011159;28;20034;-85
2023/12/22 08:35:44;;;;;;;8.05;1.50;;;4.30;99.90;;;;;;5010802;28;20041;-84
2023/12/22 08:38:09;;;;;;;7.63;2.47;;;4.30;99.90;;;;;;5011788;28;20034;-85
2023/12/22 08:40:35;;;;;;;10.38;2.58;;;4.30;99.90;;;;;;5010572;28;20026;-85
2023/12/22 08:43:01;;;;;;;11.48;3.00;;;4.30;99.90;;;;;;5010860;28;20068;-85
2023/12/22 08:45:30;;;;;;;10.50;1.80;;;4.30;99.90;;;;;;5010699;28;20052;-84
2023/12/22 08:47:57;;;;;;;5.32;2.40;;;4.30;99.90;;;;;;5027939;28;20025;-85
2023/12/22 08:50:22;;;;;;;8.38;2.03;;;4.30;99.90;;;;;;5012691;28;20036;-85
2023/12/22 08:52:48;;;;;;;7.97;2.92;;;4.30;99.90;;;;;;5015248;28;20026;-85
2023/12/22 08:55:14;;;;;;;12.88;2.80;;;4.40;99.90;;;;;;5016202;28;20033;-85
2023/12/22 08:57:40;;;;;;;10.63;2.13;;;4.40;99.90;;;;;;5015146;28;20801;-85
2023/12/22 09:00:06;;;;;;;12.38;3.47;;;4.40;99.90;;;;;;5015856;28;20507;-85
2023/12/22 09:02:32;;;;;;;5.43;2.53;;;4.40;99.90;;;;;;5030693;28;20123;-84
2023/12/22 09:04:58;;;;;;;6.82;3.28;;;4.20;99.90;;;;;;5013755;28;20632;-84
2023/12/22 09:07:24;;;;;;;9.60;2.53;;;4.10;99.90;;;;;;5013471;28;20033;-83
2023/12/22 09:09:50;;;;;;;8.38;2.53;;;4.10;99.90;;;;;;5014339;28;20129;-84
2023/12/22 09:12:16;;;;;;;14.30;5.40;;;4.10;99.90;;;;;;5013543;28;20459;-84
2023/12/22 09:14:42;;;;;;;9.48;3.35;;;4.10;99.90;;;;;;5030008;28;20037;-85
2023/12/22 09:17:07;;;;;;;17.02;3.67;;;4.10;99.90;;;;;;5029786;28;20042;-84
2023/12/22 09:19:34;;;;;;;19.27;4.80;;;4.20;99.90;;;;;;5013609;28;20058;-83
2023/12/22 09:22:00;;;;;;;20.42;3.58;;;4.20;99.90;;;;;;5030596;28;20041;-84
2023/12/22 09:24:25;;;;;;;26.02;7.13;;;4.30;99.90;;;;;;5030512;28;20109;-85
2023/12/22 09:26:51;;;;;;;26.13;9.10;;;4.30;99.90;;;;;;5030268;28;20113;-84
2023/12/22 09:29:17;;;;;;;15.27;3.50;;;4.30;99.90;;;;;;5030527;28;20026;-84
2023/12/22 09:31:43;;;;;;;44.17;10.27;;;4.30;99.90;;;;;;5014113;28;20084;-84
2023/12/22 09:34:09;;;;;;;26.23;5.30;;;4.30;99.90;;;;;;4997469;28;20502;-84
2023/12/22 09:36:34;;;;;;;22.75;5.70;;;4.30;99.90;;;;;;5013880;28;20370;-84
2023/12/22 09:39:00;;;;;;;23.02;4.68;;;4.30;99.90;;;;;;5014108;28;20430;-84
2023/12/22 09:41:26;;;;;;;21.20;4.15;;;4.30;99.90;;;;;;5014138;28;20033;-84
2023/12/22 09:43:55;;;;;;;24.23;5.65;;;4.30;99.90;;;;;;5030318;28;20034;-84
2023/12/22 09:46:22;;;;;;;27.33;4.78;;;4.40;99.90;;;;;;5013204;28;20037;-84
2023/12/22 09:48:51;;;;;;;26.05;5.45;;;4.40;99.90;;;;;;5013234;28;20022;-83
2023/12/22 09:51:18;;;;;;;32.35;6.75;;;4.40;99.90;;;;;;5014778;28;20034;-84
2023/12/22 09:53:46;;;;;;;22.35;4.32;;;4.40;99.90;;;;;;5013216;28;20037;-84
2023/12/22 09:56:13;;;;;;;20.48;4.65;;;4.30;99.90;;;;;;5012917;28;20041;-84
2023/12/22 09:58:40;;;;;;;29.75;6.43;;;4.30;99.90;;;;;;5012844;28;20034;-84
2023/12/22 10:01:07;;;;;;;33.15;6.90;;;4.40;99.90;;;;;;5012896;28;20107;-84
2023/12/22 10:03:37;;;;;;;36.55;6.47;;;4.40;99.90;;;;;;5029576;28;20124;-84
2023/12/22 10:06:03;;;;;;;36.80;6.03;;;4.40;99.90;;;;;;5012981;28;20437;-84
2023/12/22 10:08:30;;;;;;;32.20;6.55;;;4.40;99.90;;;;;;5012779;28;20032;-84
2023/12/22 10:10:56;;;;;;;34.25;7.43;;;4.50;99.90;;;;;;5013013;28;20034;-85
2023/12/22 10:13:22;;;;;;;37.00;7.85;;;4.40;99.90;;;;;;5012999;28;20128;-84
2023/12/22 10:15:48;;;;;;;36.55;6.10;;;4.40;99.90;;;;;;5029507;28;20068;-84
2023/12/22 10:18:14;;;;;;;38.50;6.78;;;4.50;99.90;;;;;;5013974;28;20046;-84
2023/12/22 10:20:40;;;;;;;29.70;5.15;;;4.50;99.90;;;;;;5012887;28;20037;-84
2023/12/22 10:23:06;;;;;;;34.55;5.40;;;4.50;99.90;;;;;;5012954;28;20116;-84
2023/12/22 10:25:34;;;;;;;40.97;6.70;;;4.60;99.90;;;;;;5010468;28;20776;-84
2023/12/22 10:28:13;;;;;;;45.97;6.95;;;4.60;99.90;;;;;;5029174;28;20105;-84
2023/12/22 10:31:11;;;;;;;47.10;8.13;;;4.60;99.90;;;;;;5012677;28;20029;-84
2023/12/22 10:33:37;;;;;;;37.08;6.57;;;4.60;99.90;;;;;;5029338;28;20030;-84
2023/12/22 10:36:03;;;;;;;32.72;6.53;;;4.70;99.90;;;;;;5012654;28;20033;-84
2023/12/22 10:38:36;;;;;;;40.03;5.97;;;4.70;99.90;;;;;;5013863;28;20034;-84
2023/12/22 10:41:03;;;;;;;44.25;7.82;;;4.70;99.90;;;;;;5028778;28;20038;-84
2023/12/22 10:43:29;;;;;;;39.45;7.22;;;4.70;99.90;;;;;;5029081;28;20036;-85
2023/12/22 10:45:55;;;;;;;42.22;11.13;;;4.80;99.90;;;;;;5012694;28;20034;-84
2023/12/22 10:48:22;;;;;;;31.52;6.60;;;4.80;99.90;;;;;;5013876;28;20107;-84
2023/12/22 10:50:48;;;;;;;39.78;9.32;;;4.80;99.90;;;;;;5012061;28;20026;-84
2023/12/22 10:53:15;;;;;;;46.63;9.38;;;4.80;99.90;;;;;;5012010;28;20091;-84
2023/12/22 10:55:41;;;;;;;42.88;8.65;;;4.80;99.90;;;;;;5011762;28;20038;-85
2023/12/22 10:58:08;;;;;;;41.00;8.43;;;4.90;99.90;;;;;;5023728;28;20176;-84
2023/12/22 11:00:41;;;;;;;34.13;7.53;;;4.90;99.90;;;;;;5011789;28;20044;-85
2023/12/22 11:03:10;;;;;;;62.83;17.23;;;4.90;99.90;;;;;;5012507;28;20025;-85
2023/12/22 11:05:37;;;;;;;58.90;11.77;;;4.90;99.90;;;;;;4995446;28;20036;-85
2023/12/22 11:08:04;;;;;;;47.50;8.18;;;5.00;99.90;;;;;;4995557;28;20029;-85
2023/12/22 11:10:31;;;;;;;30.23;6.53;;;5.00;99.90;;;;;;5028155;28;20034;-85
2023/12/22 11:12:58;;;;;;;41.78;6.65;;;5.00;99.90;;;;;;5010680;28;20770;-84
2023/12/22 11:15:26;;;;;;;34.15;6.05;;;5.00;99.90;;;;;;5011391;28;20045;-84
2023/12/22 11:17:57;;;;;;;36.28;7.28;;;5.00;99.90;;;;;;5011360;28;20108;-84
2023/12/22 11:20:25;;;;;;;45.70;7.78;;;5.00;99.90;;;;;;5011277;28;20532;-84
2023/12/22 11:22:52;;;;;;;52.60;8.18;;;4.90;99.90;;;;;;5027566;28;20050;-84
2023/12/22 11:25:19;;;;;;;38.20;7.63;;;5.00;99.90;;;;;;5027251;28;20060;-84
2023/12/22 11:27:48;;;;;;;38.03;7.78;;;5.00;99.90;;;;;;5011425;28;20041;-85
2023/12/22 11:30:14;;;;;;;34.25;6.65;;;5.00;99.90;;;;;;5026982;28;20037;-84
2023/12/22 11:32:41;;;;;;;38.50;7.65;;;5.00;99.90;;;;;;5010792;28;20076;-84
2023/12/22 11:35:07;;;;;;;29.92;7.82;;;5.00;99.90;;;;;;5010627;28;20026;-85
2023/12/22 11:37:36;;;;;;;37.17;8.55;;;5.00;99.90;;;;;;5027653;28;20018;-84
2023/12/22 11:40:02;;;;;;;42.90;6.07;;;5.10;99.90;;;;;;5028128;28;20584;-84
2023/12/22 11:42:34;;;;;;;38.53;7.15;;;5.10;99.90;;;;;;5028830;28;20021;-85
2023/12/22 11:44:59;;;;;;;;;;;5.10;99.90;;;;;;5029279;28;20040;-85
2023/12/22 11:47:28;;;;;;;32.38;6.60;;;5.10;99.90;;;;;;5028822;28;19910;-85
2023/12/22 11:49:53;;;;;;;35.13;11.07;;;5.10;99.90;;;;;;5028610;28;20611;-85
2023/12/22 11:52:28;;;;;;;34.22;7.95;;;5.10;99.90;;;;;;4995401;28;20117;-85
2023/12/22 11:54:54;;;;;;;42.80;7.85;;;5.10;99.90;;;;;;5011749;28;20048;-85
2023/12/22 11:57:34;;;;;;;34.78;7.80;;;5.10;99.90;;;;;;5011451;28;20473;-84
2023/12/22 12:00:08;;;;;;;34.50;8.98;;;5.10;99.90;;;;;;5011050;28;20363;-85
2023/12/22 12:02:41;;;;;;;31.85;6.75;;;5.10;99.90;;;;;;5011326;28;20064;-84
2023/12/22 12:05:08;;;;;;;27.85;5.35;;;5.10;99.90;;;;;;5010824;28;20596;-84
2023/12/22 12:07:41;;;;;;;23.17;7.18;;;5.10;99.90;;;;;;5010435;28;20056;-84
2023/12/22 12:10:08;;;;;;;25.15;6.40;;;5.10;99.90;;;;;;5010221;28;20069;-85
2023/12/22 12:16:01;;;;;;;22.25;5.50;;;5.10;99.90;;;;;;5026762;28;20041;-84
2023/12/22 12:18:31;;;;;;;19.15;5.20;;;5.10;99.90;;;;;;5010301;28;20033;-85
2023/12/22 12:20:57;;;;;;;22.60;5.50;;;5.10;99.90;;;;;;5026739;28;20044;-85
2023/12/22 12:23:27;;;;;;;37.42;7.55;;;5.10;99.90;;;;;;5010455;28;20030;-85
2023/12/22 12:25:54;;;;;;;26.38;7.47;;;5.10;99.90;;;;;;5029767;28;20040;-85
2023/12/22 12:28:29;;;;;;;27.73;8.27;;;5.10;99.90;;;;;;5015181;28;20358;-85
2023/12/22 12:31:01;;;;;;;29.85;6.72;;;5.20;99.90;;;;;;5031311;28;20049;-84
2023/12/22 12:33:28;;;;;;;32.85;8.18;;;5.20;99.90;;;;;;5015024;28;20038;-85
2023/12/22 12:36:02;;;;;;;36.13;12.48;;;5.20;99.90;;;;;;5031804;28;20427;-85
2023/12/22 12:39:00;;;;;;;38.00;15.30;;;5.20;99.90;;;;;;4998882;28;20041;-85
2023/12/22 12:41:34;;;;;;;34.60;14.40;;;5.30;99.90;;;;;;5015241;28;20034;-85
2023/12/22 12:44:00;;;;;;;42.15;9.40;;;5.30;99.90;;;;;;4998547;28;20386;-84
2023/12/22 12:46:33;;;;;;;22.25;6.75;;;5.30;99.90;;;;;;5015968;28;20707;-84
2023/12/22 12:49:06;;;;;;;25.83;7.68;;;5.40;99.90;;;;;;5031454;28;20030;-85
2023/12/22 12:51:39;;;;;;;28.95;7.80;;;5.40;99.90;;;;;;5015990;28;20036;-85
2023/12/22 12:54:06;;;;;;;29.08;8.65;;;5.40;99.90;;;;;;5014883;28;20100;-84